This is the latest recevied weather packets stored in our database for station/object LKKU. If no packets are shown the sender has not sent any weather packets the latest 10 day(s).
| Time | Temp. | Humidity | Pressure | Rain* | Wind** | Luminosity | Snow |
|---|---|---|---|---|---|---|---|
| 1778335386 | 17.22° C | 48% | 1018 hPa | - | - | - | - |
| 1778331918 | 17.22° C | 48% | 1018 hPa | - | - | - | - |
| 1778328186 | 17.78° C | 45% | 1019 hPa | - | - | - | - |
| 1778324585 | 17.22° C | 48% | 1019 hPa | - | - | - | - |
| 1778320986 | 17.22° C | 48% | 1019 hPa | - | - | - | - |
| 1778317386 | 16.11° C | 51% | 1019 hPa | - | - | - | - |
| 1778313785 | 15° C | 58% | 1019 hPa | - | - | - | - |
| 1778245386 | 18.89° C | 48% | 1016 hPa | - | - | - | - |
| 1778241794 | 17.78° C | 52% | 1016 hPa | - | - | - | - |
| 1778238184 | 18.89° C | 52% | 1016 hPa | - | - | - | - |
| 1778234586 | 17.22° C | 59% | 1016 hPa | - | - | - | - |
| 1778230986 | 17.22° C | 59% | 1016 hPa | - | - | - | - |
| 1778227450 | 15° C | 62% | 1017 hPa | - | - | - | - |
| 1778223849 | 15° C | 72% | 1016 hPa | - | - | - | - |
| 1778223124 | 13.89° C | 76% | 1016 hPa | - | - | - | - |
| 1778222465 | 13.89° C | 76% | 1016 hPa | - | - | - | - |
| 1778221213 | 13.89° C | 76% | 1016 hPa | - | - | - | - |
| 1778220201 | 13.89° C | 82% | 1016 hPa | - | - | - | - |
| 1778218990 | 12.78° C | 82% | 1016 hPa | - | - | - | - |
| 1778218385 | 12.78° C | 87% | 1016 hPa | - | - | - | - |
| 1778162567 | 20° C | 49% | 1012 hPa | - | - | - | - |
| 1778158986 | 18.89° C | 52% | 1012 hPa | - | - | - | - |
| 1778155395 | 18.89° C | 52% | 1012 hPa | - | - | - | - |
| 1778151786 | 20° C | 52% | 1012 hPa | - | - | - | - |
| 1778148160 | 18.89° C | 55% | 1012 hPa | - | - | - | - |
* Rain since midnight (hover to see other rain measurements)
** Current wind speed in m/s (hover to see current wind gust speed)